createdAt,value
2023-04-26T00:00:45.782Z,5.91
2023-04-26T00:03:34.811Z,5.78
2023-04-26T00:06:24.201Z,5.71
2023-04-26T00:09:13.397Z,5.65
2023-04-26T00:12:03.745Z,5.65
2023-04-26T00:14:53.009Z,5.75
2023-04-26T00:17:42.955Z,5.83
2023-04-26T00:20:32.093Z,5.90
2023-04-26T00:23:21.173Z,5.92
2023-04-26T00:26:10.207Z,5.97
2023-04-26T00:29:00.431Z,5.98
2023-04-26T00:31:49.584Z,5.96
2023-04-26T00:34:39.784Z,5.86
2023-04-26T00:37:28.976Z,5.86
2023-04-26T00:40:18.093Z,5.86
2023-04-26T00:43:07.915Z,5.71
2023-04-26T00:45:58.465Z,5.77
2023-04-26T00:48:48.459Z,5.68
2023-04-26T00:51:37.626Z,5.64
2023-04-26T00:54:27.067Z,5.56
2023-04-26T00:57:16.301Z,5.53
2023-04-26T01:00:06.792Z,5.49
2023-04-26T01:02:57.946Z,5.51
2023-04-26T01:05:47.712Z,5.48
2023-04-26T01:08:36.697Z,5.35
2023-04-26T01:11:26.814Z,5.34
2023-04-26T01:14:16.941Z,5.35
2023-04-26T01:17:06.741Z,5.38
2023-04-26T01:19:57.299Z,5.25
2023-04-26T01:22:47.684Z,5.13
2023-04-26T01:25:38.356Z,5.29
2023-04-26T01:28:27.598Z,5.34
2023-04-26T01:31:16.574Z,5.29
2023-04-26T01:34:05.942Z,5.20
2023-04-26T01:36:54.940Z,5.15
2023-04-26T01:39:46.592Z,5.07
2023-04-26T01:42:35.535Z,4.99
2023-04-26T01:45:24.510Z,5.07
2023-04-26T01:48:32.197Z,5.11
2023-04-26T01:51:23.557Z,5.14
2023-04-26T01:54:12.356Z,5.06
2023-04-26T01:57:02.873Z,5.04
2023-04-26T01:59:51.732Z,4.97
2023-04-26T02:02:41.325Z,4.91
2023-04-26T02:05:30.233Z,4.81
2023-04-26T02:08:19.031Z,4.53
2023-04-26T02:11:08.109Z,4.25
2023-04-26T02:13:59.838Z,4.27
2023-04-26T02:16:48.676Z,4.34
2023-04-26T02:19:37.570Z,4.29
2023-04-26T02:22:26.999Z,4.21
2023-04-26T02:25:16.598Z,4.16
2023-04-26T02:28:06.588Z,4.14
2023-04-26T02:30:57.348Z,4.07
2023-04-26T02:33:46.650Z,4.02
2023-04-26T02:36:35.878Z,3.95
2023-04-26T02:39:24.951Z,3.73
2023-04-26T02:42:13.978Z,3.60
2023-04-26T02:45:03.541Z,3.43
2023-04-26T02:47:54.226Z,3.39
2023-04-26T02:50:43.266Z,3.38
2023-04-26T02:53:33.550Z,3.36
2023-04-26T02:56:23.980Z,3.56
2023-04-26T02:59:16.337Z,3.41
2023-04-26T03:02:05.559Z,3.43
2023-04-26T03:04:57.327Z,3.39
2023-04-26T03:07:46.370Z,3.44
2023-04-26T03:10:35.470Z,3.35
2023-04-26T03:13:24.590Z,3.41
2023-04-26T03:16:16.351Z,3.54
2023-04-26T03:19:05.502Z,3.54
2023-04-26T03:21:55.848Z,3.65
2023-04-26T03:24:45.937Z,3.69
2023-04-26T03:27:37.251Z,3.70
2023-04-26T03:30:26.349Z,3.82
2023-04-26T03:33:15.971Z,3.79
2023-04-26T03:36:05.528Z,3.73
2023-04-26T03:38:56.522Z,3.67
2023-04-26T03:41:46.670Z,3.83
2023-04-26T03:44:36.638Z,3.78
2023-04-26T03:47:25.548Z,3.75
2023-04-26T03:50:14.510Z,3.76
2023-04-26T03:53:03.378Z,3.79
2023-04-26T03:55:55.838Z,3.83
2023-04-26T03:58:44.829Z,3.74
2023-04-26T04:01:33.675Z,3.69
2023-04-26T04:04:23.182Z,3.73
2023-04-26T04:07:12.704Z,3.65
2023-04-26T04:10:01.521Z,3.58
2023-04-26T04:12:52.421Z,3.52
2023-04-26T04:15:41.584Z,3.47
2023-04-26T04:18:31.613Z,3.49
2023-04-26T04:21:21.340Z,3.38
2023-04-26T04:24:10.359Z,3.41
2023-04-26T04:27:01.169Z,3.55
2023-04-26T04:29:51.783Z,3.63
2023-04-26T04:32:42.367Z,3.36
2023-04-26T04:35:33.820Z,3.46
2023-04-26T04:38:25.508Z,3.57
2023-04-26T04:41:15.272Z,3.51
2023-04-26T04:44:04.112Z,3.61
2023-04-26T04:46:54.594Z,3.65
2023-04-26T04:49:44.814Z,3.73
2023-04-26T04:52:34.277Z,3.92
2023-04-26T04:55:23.537Z,4.02
2023-04-26T04:58:14.015Z,4.15
2023-04-26T05:01:03.566Z,4.36
2023-04-26T05:04:04.689Z,4.59
2023-04-26T05:06:53.728Z,4.65
2023-04-26T05:09:45.770Z,4.78
2023-04-26T05:12:36.740Z,5.22
2023-04-26T05:15:25.693Z,5.26
2023-04-26T05:18:14.701Z,5.48
2023-04-26T05:21:05.616Z,5.67
2023-04-26T05:23:56.567Z,6.09
2023-04-26T05:26:45.558Z,6.53
2023-04-26T05:29:57.366Z,6.82
2023-04-26T05:33:09.122Z,7.02
2023-04-26T05:36:07.105Z,7.13
2023-04-26T05:38:55.988Z,7.11
2023-04-26T05:41:45.079Z,7.15
2023-04-26T05:44:34.487Z,7.33
2023-04-26T05:47:24.272Z,7.52
2023-04-26T05:50:15.043Z,7.49
2023-04-26T05:53:05.376Z,7.40
2023-04-26T05:55:54.232Z,7.21
2023-04-26T05:58:44.638Z,7.18
2023-04-26T06:01:33.585Z,6.96
2023-04-26T06:04:24.443Z,7.01
2023-04-26T06:07:24.806Z,7.08
2023-04-26T06:10:18.634Z,7.08
2023-04-26T06:13:08.039Z,6.96
2023-04-26T06:16:01.011Z,7.32
2023-04-26T06:18:50.028Z,7.70
2023-04-26T06:21:39.017Z,8.09
2023-04-26T06:24:28.204Z,8.21
2023-04-26T06:27:18.652Z,8.23
2023-04-26T06:30:11.433Z,8.59
2023-04-26T06:33:04.567Z,8.96
2023-04-26T06:35:55.333Z,9.10
2023-04-26T06:38:46.552Z,9.51
2023-04-26T06:41:35.599Z,9.88
2023-04-26T06:44:26.234Z,9.86
2023-04-26T06:47:22.186Z,9.71
2023-04-26T06:50:12.517Z,9.65
2023-04-26T06:53:01.460Z,9.59
2023-04-26T06:55:50.364Z,9.60
2023-04-26T06:58:39.346Z,9.76
2023-04-26T07:01:33.451Z,9.41
2023-04-26T07:04:22.590Z,9.54
2023-04-26T07:07:13.630Z,9.77
2023-04-26T07:10:02.858Z,10.06
2023-04-26T07:12:53.518Z,9.88
2023-04-26T07:15:42.503Z,10.13
2023-04-26T07:18:32.826Z,10.40
2023-04-26T07:21:21.937Z,10.28
2023-04-26T07:24:11.001Z,9.81
2023-04-26T07:27:00.051Z,9.55
2023-04-26T07:29:48.976Z,9.62
2023-04-26T07:32:40.071Z,9.94
2023-04-26T07:35:31.005Z,10.14
2023-04-26T07:38:20.997Z,10.67
2023-04-26T07:41:10.556Z,11.01
2023-04-26T07:43:59.519Z,11.57
2023-04-26T07:46:48.422Z,11.90
2023-04-26T07:49:37.404Z,11.92
2023-04-26T07:52:27.721Z,12.48
2023-04-26T07:55:17.746Z,12.91
2023-04-26T07:58:14.516Z,13.42
2023-04-26T08:01:04.219Z,13.14
2023-04-26T08:03:53.618Z,13.75
2023-04-26T08:06:45.101Z,13.14
2023-04-26T08:09:35.766Z,13.49
2023-04-26T08:12:25.767Z,13.50
2023-04-26T08:15:16.236Z,13.79
2023-04-26T08:18:05.427Z,13.02
2023-04-26T08:20:55.246Z,12.74
2023-04-26T08:23:44.458Z,13.67
2023-04-26T08:26:34.811Z,13.80
2023-04-26T08:29:24.772Z,13.34
2023-04-26T08:32:15.091Z,13.13
2023-04-26T08:35:04.314Z,12.60
2023-04-26T08:37:53.540Z,12.33
2023-04-26T08:40:48.016Z,12.67
2023-04-26T08:43:41.648Z,12.68
2023-04-26T08:46:36.434Z,13.64
2023-04-26T08:49:42.418Z,14.21
2023-04-26T08:52:32.833Z,13.94
2023-04-26T08:55:22.053Z,12.97
2023-04-26T08:58:14.139Z,12.80
2023-04-26T09:01:08.022Z,13.12
2023-04-26T09:03:58.171Z,12.83
2023-04-26T09:06:49.648Z,12.53
2023-04-26T09:09:43.583Z,12.33
2023-04-26T09:12:32.642Z,12.88
2023-04-26T09:15:23.837Z,13.08
2023-04-26T09:18:22.902Z,13.23
2023-04-26T09:21:17.814Z,13.18
2023-04-26T09:24:07.606Z,12.71
2023-04-26T09:27:03.424Z,13.34
2023-04-26T09:30:06.482Z,13.68
2023-04-26T09:33:00.444Z,14.10
2023-04-26T09:35:50.811Z,14.27
2023-04-26T09:38:44.454Z,13.96
2023-04-26T09:41:45.709Z,14.04
2023-04-26T09:44:35.099Z,14.57
2023-04-26T09:47:24.045Z,14.99
2023-04-26T09:50:13.024Z,14.93
2023-04-26T09:53:04.842Z,14.90
2023-04-26T09:55:56.854Z,15.32
2023-04-26T09:59:03.558Z,15.59
2023-04-26T10:01:52.848Z,15.55
2023-04-26T10:04:43.191Z,15.69
2023-04-26T10:07:34.386Z,16.28
2023-04-26T10:10:25.270Z,16.31
2023-04-26T10:13:16.824Z,15.72
2023-04-26T10:16:07.982Z,15.37
2023-04-26T10:18:57.831Z,14.68
2023-04-26T10:21:49.864Z,14.11
2023-04-26T10:24:41.042Z,14.70
2023-04-26T10:27:53.218Z,14.61
2023-04-26T10:31:01.426Z,14.42
2023-04-26T10:34:21.816Z,13.97
2023-04-26T10:37:13.098Z,14.36
2023-04-26T10:40:29.499Z,14.50
2023-04-26T10:43:32.846Z,14.19
2023-04-26T10:46:39.007Z,14.33
2023-04-26T10:49:45.644Z,15.10
2023-04-26T10:52:35.924Z,15.26
2023-04-26T10:55:40.892Z,15.04
2023-04-26T10:58:33.104Z,14.14
2023-04-26T11:01:22.061Z,14.10
2023-04-26T11:04:14.992Z,14.00
2023-04-26T11:07:05.095Z,14.78
2023-04-26T11:09:54.140Z,15.51
2023-04-26T11:12:43.898Z,16.10
2023-04-26T11:15:36.962Z,16.73
2023-04-26T11:18:26.450Z,16.93
2023-04-26T11:21:18.771Z,17.82
2023-04-26T11:24:08.922Z,17.89
2023-04-26T11:26:58.201Z,18.52
2023-04-26T11:29:47.111Z,18.42
2023-04-26T11:32:37.275Z,16.98
2023-04-26T11:35:29.801Z,16.57
2023-04-26T11:38:23.741Z,16.54
2023-04-26T11:41:12.800Z,17.01
2023-04-26T11:44:02.985Z,17.95
2023-04-26T11:46:53.455Z,17.44
2023-04-26T11:49:44.423Z,16.46
2023-04-26T11:52:34.199Z,16.40
2023-04-26T11:55:28.981Z,15.89
2023-04-26T11:58:17.809Z,16.08
2023-04-26T12:01:06.674Z,16.56
2023-04-26T12:03:59.700Z,15.56
2023-04-26T12:06:52.692Z,15.22
2023-04-26T12:09:43.595Z,15.48
2023-04-26T12:12:32.427Z,15.26
2023-04-26T12:15:25.074Z,16.04
2023-04-26T12:18:14.802Z,16.61
2023-04-26T12:21:06.453Z,17.48
2023-04-26T12:23:58.037Z,18.24
2023-04-26T12:26:46.940Z,17.23
2023-04-26T12:29:37.650Z,17.36
2023-04-26T12:32:27.052Z,16.06
2023-04-26T12:35:17.063Z,14.79
2023-04-26T12:38:06.976Z,14.19
2023-04-26T12:40:58.003Z,14.40
2023-04-26T12:43:47.757Z,14.64
2023-04-26T12:46:36.762Z,14.97
2023-04-26T12:49:29.627Z,15.56
2023-04-26T12:52:18.444Z,16.24
2023-04-26T12:55:10.258Z,16.73
2023-04-26T12:58:01.079Z,17.24
2023-04-26T13:00:51.259Z,17.29
2023-04-26T13:03:40.832Z,16.48
2023-04-26T13:06:29.799Z,15.70
2023-04-26T13:09:18.889Z,15.16
2023-04-26T13:12:08.581Z,15.03
2023-04-26T13:15:00.042Z,14.94
2023-04-26T13:17:49.086Z,14.68
2023-04-26T13:20:38.253Z,15.29
2023-04-26T13:23:27.138Z,15.46
2023-04-26T13:26:17.554Z,16.21
2023-04-26T13:29:06.710Z,16.44
2023-04-26T13:31:57.550Z,16.01
2023-04-26T13:34:48.277Z,15.30
2023-04-26T13:37:37.310Z,15.33
2023-04-26T13:40:26.277Z,14.42
2023-04-26T13:43:15.232Z,14.24
2023-04-26T13:46:04.498Z,14.22
2023-04-26T13:48:55.155Z,14.42
2023-04-26T13:51:44.160Z,14.65
2023-04-26T13:54:33.082Z,14.68
2023-04-26T13:57:22.049Z,15.16
2023-04-26T14:00:15.261Z,15.18
2023-04-26T14:03:06.210Z,15.64
2023-04-26T14:06:03.979Z,15.66
2023-04-26T14:08:53.017Z,15.79
2023-04-26T14:11:42.827Z,15.28
2023-04-26T14:14:32.199Z,14.79
2023-04-26T14:17:24.009Z,15.59
2023-04-26T14:20:13.643Z,15.85
2023-04-26T14:23:04.162Z,16.02
2023-04-26T14:25:53.981Z,16.06
2023-04-26T14:28:43.098Z,16.95
2023-04-26T14:31:35.002Z,16.42
2023-04-26T14:34:23.890Z,16.39
2023-04-26T14:37:12.907Z,16.34
2023-04-26T14:40:04.184Z,15.92
2023-04-26T14:42:53.106Z,15.62
2023-04-26T14:45:45.165Z,14.99
2023-04-26T14:48:34.146Z,14.87
2023-04-26T14:51:24.428Z,14.69
2023-04-26T14:54:15.906Z,14.69
2023-04-26T14:57:06.249Z,14.04
2023-04-26T14:59:55.294Z,13.99
2023-04-26T15:02:44.668Z,14.88
2023-04-26T15:05:33.924Z,14.90
2023-04-26T15:08:22.984Z,15.11
2023-04-26T15:11:11.914Z,15.12
2023-04-26T15:14:04.623Z,15.78
2023-04-26T15:16:55.610Z,15.86
2023-04-26T15:19:45.505Z,15.42
2023-04-26T15:22:37.992Z,14.84
2023-04-26T15:25:27.642Z,14.83
2023-04-26T15:28:17.997Z,14.94
2023-04-26T15:31:12.040Z,14.61
2023-04-26T15:34:08.446Z,14.18
2023-04-26T15:37:01.371Z,14.54
2023-04-26T15:39:54.654Z,15.36
2023-04-26T15:42:46.180Z,15.49
2023-04-26T15:45:39.654Z,15.24
2023-04-26T15:48:30.021Z,14.96
2023-04-26T15:51:20.202Z,14.50
2023-04-26T15:54:10.179Z,14.29
2023-04-26T15:57:04.001Z,14.04
2023-04-26T15:59:58.913Z,13.88
2023-04-26T16:02:48.149Z,13.87
2023-04-26T16:05:40.199Z,13.74
2023-04-26T16:08:40.356Z,13.54
2023-04-26T16:11:33.386Z,13.40
2023-04-26T16:14:23.090Z,13.54
2023-04-26T16:17:12.041Z,13.72
2023-04-26T16:20:01.968Z,14.42
2023-04-26T16:22:53.036Z,15.05
2023-04-26T16:25:42.572Z,14.54
2023-04-26T16:28:58.521Z,14.22
2023-04-26T16:31:49.040Z,13.91
2023-04-26T16:34:42.315Z,13.67
2023-04-26T16:37:34.689Z,13.39
2023-04-26T16:40:24.868Z,13.10
2023-04-26T16:43:14.414Z,13.27
2023-04-26T16:46:11.594Z,13.17
2023-04-26T16:49:01.093Z,13.17
2023-04-26T16:51:53.914Z,13.01
2023-04-26T16:54:43.989Z,12.99
2023-04-26T16:57:35.555Z,12.98
2023-04-26T17:00:33.757Z,12.82
2023-04-26T17:03:24.738Z,12.67
2023-04-26T17:06:16.249Z,12.73
2023-04-26T17:09:05.708Z,12.64
2023-04-26T17:11:54.603Z,12.51
2023-04-26T17:14:46.674Z,12.36
2023-04-26T17:17:35.706Z,12.33
2023-04-26T17:20:24.744Z,12.26
2023-04-26T17:23:13.669Z,12.43
2023-04-26T17:26:04.305Z,12.56
2023-04-26T17:28:53.829Z,12.39
2023-04-26T17:31:44.548Z,12.30
2023-04-26T17:34:34.300Z,12.10
2023-04-26T17:37:23.759Z,11.82
2023-04-26T17:40:13.668Z,11.74
2023-04-26T17:43:03.303Z,11.69
2023-04-26T17:45:52.323Z,11.61
2023-04-26T17:48:43.325Z,11.46
2023-04-26T17:51:33.000Z,11.31
2023-04-26T17:54:22.404Z,11.23
2023-04-26T17:57:11.685Z,11.07
2023-04-26T18:00:00.735Z,10.96
2023-04-26T18:02:49.847Z,10.81
2023-04-26T18:05:40.386Z,10.67
2023-04-26T18:08:29.947Z,10.59
2023-04-26T18:11:21.028Z,10.47
2023-04-26T18:14:11.485Z,10.45
2023-04-26T18:17:00.710Z,10.40
2023-04-26T18:19:49.723Z,10.31
2023-04-26T18:22:40.088Z,10.29
2023-04-26T18:25:29.116Z,10.34
2023-04-26T18:28:18.003Z,10.42
2023-04-26T18:31:10.716Z,10.55
2023-04-26T18:34:03.421Z,10.52
2023-04-26T18:36:52.314Z,10.49
2023-04-26T18:39:42.783Z,10.50
2023-04-26T18:42:32.119Z,10.50
2023-04-26T18:45:21.144Z,10.46
2023-04-26T18:48:10.186Z,10.38
2023-04-26T18:50:59.057Z,10.40
2023-04-26T18:53:47.996Z,10.31
2023-04-26T18:56:38.506Z,10.13
2023-04-26T18:59:27.576Z,10.14
2023-04-26T19:02:16.733Z,10.16
2023-04-26T19:05:07.039Z,10.16
2023-04-26T19:07:56.119Z,9.99
2023-04-26T19:10:45.231Z,10.11
2023-04-26T19:13:36.013Z,10.17
2023-04-26T19:16:24.988Z,10.10
2023-04-26T19:19:14.033Z,10.03
2023-04-26T19:22:03.461Z,10.06
2023-04-26T19:24:52.683Z,9.96
2023-04-26T19:27:41.923Z,9.95
2023-04-26T19:30:32.604Z,9.88
2023-04-26T19:33:21.565Z,9.67
2023-04-26T19:36:10.825Z,9.60
2023-04-26T19:39:00.742Z,9.51
2023-04-26T19:41:50.415Z,9.52
2023-04-26T19:44:39.649Z,9.42
2023-04-26T19:47:30.440Z,9.37
2023-04-26T19:50:19.637Z,9.08
2023-04-26T19:53:09.853Z,9.13
2023-04-26T19:55:58.920Z,9.10
2023-04-26T19:58:47.995Z,9.01
2023-04-26T20:01:39.745Z,8.87
2023-04-26T20:04:30.614Z,8.78
2023-04-26T20:07:20.134Z,8.62
2023-04-26T20:10:11.124Z,8.36
2023-04-26T20:13:00.696Z,8.35
2023-04-26T20:15:53.666Z,8.35
2023-04-26T20:18:43.444Z,8.31
2023-04-26T20:21:34.664Z,8.22
2023-04-26T20:24:27.845Z,8.01
2023-04-26T20:27:17.246Z,8.00
2023-04-26T20:30:08.822Z,7.88
2023-04-26T20:32:59.079Z,7.87
2023-04-26T20:35:50.736Z,7.80
2023-04-26T20:38:43.491Z,7.72
2023-04-26T20:41:32.816Z,7.73
2023-04-26T20:44:21.775Z,7.51
2023-04-26T20:47:10.709Z,7.52
2023-04-26T20:49:59.859Z,7.35
2023-04-26T20:52:49.202Z,7.40
2023-04-26T20:55:40.190Z,7.45
2023-04-26T20:58:30.528Z,7.45
2023-04-26T21:01:19.512Z,7.35
2023-04-26T21:04:08.770Z,7.32
2023-04-26T21:06:58.165Z,7.21
2023-04-26T21:09:49.217Z,7.26
2023-04-26T21:12:41.692Z,7.26
2023-04-26T21:15:30.779Z,7.45
2023-04-26T21:18:19.722Z,7.45
2023-04-26T21:21:09.002Z,7.47
2023-04-26T21:23:58.043Z,7.67
2023-04-26T21:26:47.349Z,7.65
2023-04-26T21:29:37.657Z,7.69
2023-04-26T21:32:26.597Z,7.64
2023-04-26T21:35:15.455Z,7.64
2023-04-26T21:38:05.469Z,7.63
2023-04-26T21:40:55.630Z,7.45
2023-04-26T21:44:02.120Z,7.50
2023-04-26T21:46:52.454Z,7.52
2023-04-26T21:49:57.435Z,7.63
2023-04-26T21:52:46.323Z,7.59
2023-04-26T21:55:35.201Z,7.32
2023-04-26T21:58:38.133Z,7.38
2023-04-26T22:01:41.316Z,7.20
2023-04-26T22:04:31.760Z,7.14
2023-04-26T22:07:21.007Z,7.10
2023-04-26T22:11:16.479Z,7.02
2023-04-26T22:14:05.534Z,6.95
2023-04-26T22:16:54.449Z,6.81
2023-04-26T22:20:01.901Z,6.71
2023-04-26T22:22:51.018Z,6.75
2023-04-26T22:25:40.232Z,6.86
2023-04-26T22:29:00.490Z,6.80
2023-04-26T22:31:57.172Z,6.69
2023-04-26T22:34:47.465Z,6.54
2023-04-26T22:37:36.695Z,6.56
2023-04-26T22:40:26.689Z,6.65
2023-04-26T22:43:15.803Z,6.71
2023-04-26T22:46:05.041Z,6.68
2023-04-26T22:49:02.146Z,6.71
2023-04-26T22:52:09.863Z,6.70
2023-04-26T22:55:03.282Z,6.73
2023-04-26T22:57:52.464Z,6.77
2023-04-26T23:00:51.308Z,6.75
2023-04-26T23:03:40.533Z,6.76
2023-04-26T23:06:29.697Z,6.66
2023-04-26T23:10:34.405Z,6.75
2023-04-26T23:19:22.775Z,6.61
2023-04-26T23:26:19.385Z,6.59
2023-04-26T23:33:52.020Z,6.36
2023-04-26T23:36:42.265Z,6.41
2023-04-26T23:39:34.526Z,6.52
2023-04-26T23:42:23.504Z,6.62
2023-04-26T23:45:12.994Z,6.68
2023-04-26T23:48:02.013Z,6.61
2023-04-26T23:50:53.275Z,6.59
2023-04-26T23:53:44.553Z,6.61
2023-04-26T23:56:33.517Z,6.78
2023-04-26T23:59:23.151Z,6.65
